createdAt,value
2023-03-06T00:01:22.924Z,59.33
2023-03-06T00:06:27.032Z,59.70
2023-03-06T00:11:30.285Z,60.27
2023-03-06T00:16:33.567Z,60.81
2023-03-06T00:21:36.953Z,61.33
2023-03-06T00:26:41.507Z,69.22
2023-03-06T00:31:48.232Z,66.60
2023-03-06T00:36:51.651Z,53.49
2023-03-06T00:41:55.847Z,50.05
2023-03-06T00:47:01.383Z,51.29
2023-03-06T00:52:05.499Z,53.22
2023-03-06T00:57:09.437Z,54.40
2023-03-06T01:02:13.386Z,56.23
2023-03-06T01:07:16.741Z,57.11
2023-03-06T01:12:22.799Z,57.97
2023-03-06T01:17:27.426Z,58.84
2023-03-06T01:22:31.149Z,59.40
2023-03-06T01:27:36.118Z,59.74
2023-03-06T01:32:39.870Z,59.98
2023-03-06T01:37:43.596Z,60.28
2023-03-06T01:42:49.653Z,60.45
2023-03-06T01:47:52.902Z,60.45
2023-03-06T01:52:59.666Z,60.53
2023-03-06T01:58:14.652Z,60.79
2023-03-06T02:03:25.093Z,61.00
2023-03-06T02:08:30.034Z,61.26
2023-03-06T02:13:33.641Z,61.45
2023-03-06T02:18:38.372Z,61.69
2023-03-06T02:24:17.205Z,61.85
2023-03-06T02:29:25.082Z,61.86
2023-03-06T02:34:28.438Z,69.78
2023-03-06T02:39:34.742Z,65.56
2023-03-06T02:44:38.685Z,51.76
2023-03-06T02:49:41.920Z,49.66
2023-03-06T02:54:45.304Z,51.22
2023-03-06T02:59:48.581Z,52.17
2023-03-06T03:04:52.641Z,53.42
2023-03-06T03:09:56.390Z,54.56
2023-03-06T03:15:00.168Z,55.75
2023-03-06T03:20:07.941Z,56.71
2023-03-06T03:25:11.630Z,57.65
2023-03-06T03:30:15.748Z,58.46
2023-03-06T03:35:19.405Z,59.33
2023-03-06T03:40:23.499Z,60.03
2023-03-06T03:45:27.463Z,60.79
2023-03-06T03:50:31.035Z,61.12
2023-03-06T03:55:34.346Z,61.71
2023-03-06T04:00:37.838Z,70.28
2023-03-06T04:05:45.393Z,66.45
2023-03-06T04:10:51.516Z,53.23
2023-03-06T04:15:55.921Z,50.28
2023-03-06T04:20:59.801Z,51.83
2023-03-06T04:26:04.427Z,52.90
2023-03-06T04:31:07.770Z,54.47
2023-03-06T04:36:31.316Z,55.91
2023-03-06T04:41:37.954Z,57.03
2023-03-06T04:46:41.527Z,56.71
2023-03-06T04:51:44.783Z,58.78
2023-03-06T04:56:47.930Z,59.86
2023-03-06T05:01:51.196Z,60.44
2023-03-06T05:06:54.938Z,61.23
2023-03-06T05:11:58.940Z,61.43
2023-03-06T05:17:02.530Z,61.65
2023-03-06T05:22:05.949Z,69.94
2023-03-06T05:27:09.216Z,65.44
2023-03-06T05:32:12.805Z,52.83
2023-03-06T05:37:17.164Z,50.00
2023-03-06T05:42:20.893Z,51.29
2023-03-06T05:47:24.377Z,53.16
2023-03-06T05:52:27.620Z,54.95
2023-03-06T05:57:30.831Z,55.87
2023-03-06T06:02:34.011Z,56.70
2023-03-06T06:07:37.569Z,57.65
2023-03-06T06:12:41.092Z,58.30
2023-03-06T06:17:44.261Z,59.25
2023-03-06T06:22:47.390Z,60.10
2023-03-06T06:27:50.770Z,60.75
2023-03-06T06:32:54.094Z,60.80
2023-03-06T06:37:57.289Z,61.21
2023-03-06T06:43:00.710Z,61.74
2023-03-06T06:48:04.623Z,61.58
2023-03-06T06:53:07.794Z,68.50
2023-03-06T06:58:11.255Z,64.00
2023-03-06T07:03:15.063Z,50.38
2023-03-06T07:08:18.518Z,48.62
2023-03-06T07:13:22.044Z,50.07
2023-03-06T07:18:25.300Z,51.00
2023-03-06T07:23:28.690Z,51.80
2023-03-06T07:28:46.208Z,52.96
2023-03-06T07:33:55.638Z,53.77
2023-03-06T07:38:58.891Z,54.92
2023-03-06T07:44:02.771Z,56.06
2023-03-06T07:49:06.519Z,56.81
2023-03-06T07:54:10.225Z,56.31
2023-03-06T07:59:13.609Z,57.34
2023-03-06T08:04:17.627Z,57.17
2023-03-06T08:09:21.243Z,56.98
2023-03-06T08:14:24.594Z,57.00
2023-03-06T08:19:27.735Z,57.37
2023-03-06T08:24:31.299Z,57.19
2023-03-06T08:29:35.272Z,56.98
2023-03-06T08:34:40.149Z,56.56
2023-03-06T08:39:43.540Z,55.99
2023-03-06T08:44:47.035Z,55.75
2023-03-06T08:49:50.835Z,55.78
2023-03-06T08:54:54.266Z,55.64
2023-03-06T08:59:58.073Z,54.93
2023-03-06T09:05:01.593Z,54.68
2023-03-06T09:10:05.275Z,55.09
2023-03-06T09:15:09.529Z,54.13
2023-03-06T09:20:13.604Z,54.19
2023-03-06T09:25:20.626Z,54.09
2023-03-06T09:30:24.091Z,53.28
2023-03-06T09:35:27.328Z,52.74
2023-03-06T09:41:02.858Z,52.24
2023-03-06T09:46:43.010Z,51.26
2023-03-06T09:52:00.931Z,50.75
2023-03-06T09:57:14.672Z,50.89
2023-03-06T10:02:28.944Z,50.14
2023-03-06T10:08:02.616Z,50.48
2023-03-06T10:13:17.138Z,50.50
2023-03-06T10:18:20.820Z,50.75
2023-03-06T10:23:33.593Z,50.15
2023-03-06T10:28:55.410Z,50.41
2023-03-06T10:34:17.330Z,49.30
2023-03-06T10:39:22.880Z,48.67
2023-03-06T10:44:26.143Z,47.78
2023-03-06T10:49:34.910Z,47.61
2023-03-06T10:54:50.905Z,48.30
2023-03-06T11:00:01.227Z,44.09
2023-03-06T11:05:06.716Z,45.56
2023-03-06T11:10:19.338Z,44.47
2023-03-06T11:15:23.655Z,43.53
2023-03-06T11:20:48.615Z,42.81
2023-03-06T11:26:23.039Z,43.66
2023-03-06T11:31:32.652Z,43.11
2023-03-06T11:37:06.866Z,43.50
2023-03-06T11:42:26.672Z,42.01
2023-03-06T11:47:36.943Z,41.87
2023-03-06T11:52:43.395Z,43.29
2023-03-06T11:57:57.351Z,43.50
2023-03-06T12:03:27.485Z,42.76
2023-03-06T12:09:13.288Z,41.65
2023-03-06T12:14:37.735Z,42.14
2023-03-06T12:19:53.669Z,41.22
2023-03-06T12:25:33.912Z,42.86
2023-03-06T12:30:46.197Z,43.56
2023-03-06T12:35:55.696Z,43.85
2023-03-06T12:41:31.115Z,42.77
2023-03-06T12:46:39.871Z,42.54
2023-03-06T12:51:46.310Z,43.39
2023-03-06T12:56:51.241Z,42.50
2023-03-06T13:02:35.390Z,42.76
2023-03-06T13:08:03.819Z,42.63
2023-03-06T13:13:26.187Z,42.28
2023-03-06T13:18:35.402Z,42.05
2023-03-06T13:23:51.951Z,42.88
2023-03-06T13:28:58.408Z,42.90
2023-03-06T13:34:04.087Z,42.77
2023-03-06T13:39:09.526Z,42.72
2023-03-06T13:44:25.438Z,43.77
2023-03-06T13:49:29.676Z,43.57
2023-03-06T13:54:51.672Z,43.54
2023-03-06T14:00:09.516Z,43.52
2023-03-06T14:05:15.725Z,43.27
2023-03-06T14:10:26.346Z,43.94
2023-03-06T14:15:32.343Z,45.92
2023-03-06T14:20:50.692Z,47.38
2023-03-06T14:26:03.233Z,48.57
2023-03-06T14:31:07.352Z,49.52
2023-03-06T14:36:14.732Z,50.38
2023-03-06T14:41:29.393Z,50.59
2023-03-06T14:46:32.917Z,51.74
2023-03-06T14:51:50.632Z,51.43
2023-03-06T14:57:02.885Z,52.21
2023-03-06T15:02:09.986Z,52.23
2023-03-06T15:07:18.100Z,52.94
2023-03-06T15:12:21.692Z,52.51
2023-03-06T15:17:30.453Z,52.47
2023-03-06T15:22:38.752Z,51.81
2023-03-06T15:27:52.424Z,51.33
2023-03-06T15:33:09.375Z,50.43
2023-03-06T15:38:41.205Z,50.15
2023-03-06T15:43:44.482Z,49.57
2023-03-06T15:48:56.580Z,49.36
2023-03-06T15:54:11.246Z,49.08
2023-03-06T15:59:24.936Z,48.94
2023-03-06T16:04:28.842Z,48.78
2023-03-06T16:09:33.158Z,48.06
2023-03-06T16:14:36.417Z,47.44
2023-03-06T16:19:39.889Z,47.48
2023-03-06T16:24:43.540Z,47.26
2023-03-06T16:29:46.971Z,47.38
2023-03-06T16:34:50.456Z,47.31
2023-03-06T16:39:54.022Z,47.25
2023-03-06T16:45:00.111Z,46.56
2023-03-06T16:50:05.319Z,46.24
2023-03-06T16:55:09.048Z,46.60
2023-03-06T17:00:13.717Z,46.48
2023-03-06T17:05:19.812Z,46.47
2023-03-06T17:10:26.563Z,46.65
2023-03-06T17:15:29.854Z,46.75
2023-03-06T17:20:33.373Z,47.16
2023-03-06T17:25:38.665Z,47.65
2023-03-06T17:30:42.084Z,48.06
2023-03-06T17:35:45.509Z,48.48
2023-03-06T17:40:48.704Z,48.97
2023-03-06T17:45:51.848Z,49.38
2023-03-06T17:50:56.207Z,49.78
2023-03-06T17:55:59.763Z,50.22
2023-03-06T18:01:21.440Z,50.63
2023-03-06T18:06:27.748Z,50.90
2023-03-06T18:11:32.463Z,51.09
2023-03-06T18:16:35.857Z,51.50
2023-03-06T18:21:40.055Z,51.83
2023-03-06T18:26:43.958Z,51.93
2023-03-06T18:31:50.218Z,52.37
2023-03-06T18:36:53.575Z,52.44
2023-03-06T18:41:56.900Z,52.51
2023-03-06T18:47:00.098Z,52.74
2023-03-06T18:52:03.580Z,52.85
2023-03-06T18:57:07.501Z,53.06
2023-03-06T19:02:12.448Z,53.91
2023-03-06T19:07:15.917Z,53.62
2023-03-06T19:12:19.467Z,53.87
2023-03-06T19:17:24.946Z,53.82
2023-03-06T19:22:28.370Z,54.02
2023-03-06T19:27:32.809Z,54.30
2023-03-06T19:32:36.260Z,54.43
2023-03-06T19:37:39.863Z,54.48
2023-03-06T19:42:43.194Z,54.82
2023-03-06T19:47:47.058Z,55.24
2023-03-06T19:52:52.932Z,55.17
2023-03-06T19:57:56.211Z,55.30
2023-03-06T20:02:59.929Z,54.99
2023-03-06T20:08:03.990Z,55.25
2023-03-06T20:13:09.169Z,55.42
2023-03-06T20:18:12.993Z,55.70
2023-03-06T20:23:16.738Z,55.85
2023-03-06T20:28:19.969Z,56.00
2023-03-06T20:33:23.213Z,56.15
2023-03-06T20:38:26.601Z,56.21
2023-03-06T20:43:29.932Z,56.34
2023-03-06T20:48:33.257Z,56.49
2023-03-06T20:53:36.929Z,56.58
2023-03-06T20:58:40.104Z,56.69
2023-03-06T21:03:44.014Z,56.85
2023-03-06T21:08:47.932Z,56.87
2023-03-06T21:13:52.876Z,56.91
2023-03-06T21:18:57.566Z,56.98
2023-03-06T21:24:01.980Z,56.99
2023-03-06T21:29:05.748Z,57.02
2023-03-06T21:34:09.096Z,57.17
2023-03-06T21:39:18.584Z,57.21
2023-03-06T21:44:21.810Z,57.32
2023-03-06T21:49:26.285Z,57.44
2023-03-06T21:54:29.601Z,57.53
2023-03-06T21:59:32.890Z,57.60
2023-03-06T22:04:37.123Z,57.62
2023-03-06T22:09:40.481Z,57.66
2023-03-06T22:14:44.161Z,57.70
2023-03-06T22:19:49.059Z,57.81
2023-03-06T22:24:52.379Z,57.88
2023-03-06T22:29:55.773Z,57.91
2023-03-06T22:34:59.528Z,58.13
2023-03-06T22:40:03.210Z,58.17
2023-03-06T22:45:06.969Z,58.25
2023-03-06T22:50:11.222Z,58.26
2023-03-06T22:55:14.737Z,58.29
2023-03-06T23:00:18.690Z,58.31
2023-03-06T23:05:22.242Z,58.33
2023-03-06T23:10:26.170Z,58.29
2023-03-06T23:15:48.542Z,58.28
2023-03-06T23:21:15.366Z,58.40
2023-03-06T23:26:37.794Z,58.43
2023-03-06T23:31:41.162Z,58.44
2023-03-06T23:36:44.490Z,58.52
2023-03-06T23:41:47.927Z,58.38
2023-03-06T23:46:51.583Z,58.18
2023-03-06T23:51:55.200Z,58.18
2023-03-06T23:56:58.917Z,58.29
